createdAt,value
2019-04-22T04:01:45.855Z,24.00
2019-04-22T04:02:40.356Z,32.00
2019-04-22T04:05:37.683Z,44.00
2019-04-22T04:08:21.677Z,68.00
2019-04-22T04:10:21.038Z,88.00
2019-04-22T04:11:20.550Z,96.00
2019-04-22T04:15:53.066Z,160.00
2019-04-22T04:19:07.708Z,216.00
2019-04-22T04:22:56.174Z,296.00
2019-04-22T04:24:45.754Z,352.00
2019-04-22T04:27:50.860Z,428.00
2019-04-22T04:28:43.850Z,460.00
2019-04-22T04:30:18.830Z,520.00
2019-04-22T04:31:24.575Z,552.00
2019-04-22T04:33:22.932Z,620.00
2019-04-22T04:34:20.022Z,652.00
2019-04-22T04:36:03.386Z,724.00
2019-04-22T04:39:05.378Z,836.00
2019-04-22T04:40:12.505Z,880.00
2019-04-22T04:41:54.910Z,956.00
2019-04-22T04:44:59.232Z,1072.00
2019-04-22T04:45:45.071Z,1116.00
2019-04-22T04:48:41.967Z,1236.00
2019-04-22T04:53:29.335Z,1448.00
2019-04-22T04:56:22.879Z,1576.00
2019-04-22T04:57:16.485Z,1620.00
2019-04-22T04:59:16.930Z,1696.00
2019-04-22T05:01:55.892Z,1820.00
2019-04-22T05:05:54.775Z,1972.00
2019-04-22T05:07:40.407Z,2048.00
2019-04-22T05:13:35.301Z,2264.00
2019-04-22T05:14:39.313Z,2296.00
2019-04-22T05:17:23.499Z,2400.00
2019-04-22T05:19:15.959Z,2468.00
2019-04-22T05:20:24.212Z,2504.00
2019-04-22T05:22:06.079Z,2576.00
2019-04-22T05:23:01.506Z,2612.00
2019-04-22T05:24:56.872Z,2672.00
2019-04-22T05:25:55.241Z,2704.00
2019-04-22T05:27:45.337Z,2764.00
2019-04-22T05:28:42.268Z,2796.00
2019-04-22T05:30:47.350Z,2856.00
2019-04-22T05:31:38.226Z,2876.00
2019-04-22T05:33:33.103Z,2932.00
2019-04-22T05:34:29.575Z,2956.00
2019-04-22T05:36:20.389Z,3000.00
2019-04-22T05:37:27.509Z,3020.00
2019-04-22T05:39:11.167Z,3064.00
2019-04-22T05:40:20.556Z,3088.00
2019-04-22T05:42:10.398Z,3136.00
2019-04-22T05:43:09.553Z,3164.00
2019-04-22T05:45:04.978Z,3224.00
2019-04-22T05:45:59.206Z,3244.00
2019-04-22T05:47:51.924Z,3300.00
2019-04-22T05:48:56.580Z,3324.00
2019-04-22T05:50:45.154Z,3372.00
2019-04-22T05:51:43.664Z,3392.00
2019-04-22T05:53:35.658Z,3448.00
2019-04-22T05:54:32.976Z,3464.00
2019-04-22T05:56:34.507Z,3508.00
2019-04-22T05:57:33.030Z,3532.00
2019-04-22T05:59:28.702Z,3580.00
2019-04-22T06:00:38.329Z,3608.00
2019-04-22T06:02:23.506Z,3656.00
2019-04-22T06:03:08.590Z,3680.00
2019-04-22T06:06:08.956Z,3760.00
2019-04-22T06:08:00.086Z,3820.00
2019-04-22T06:10:54.094Z,3904.00
2019-04-22T06:11:50.972Z,3936.00
2019-04-22T06:13:41.798Z,3984.00
2019-04-22T06:14:40.781Z,4004.00
2019-04-22T06:16:40.090Z,4056.00
2019-04-22T06:17:37.934Z,4088.00
2019-04-22T06:19:27.906Z,4144.00
2019-04-22T06:20:32.590Z,4176.00
2019-04-22T06:22:34.371Z,4220.00
2019-04-22T06:23:26.152Z,4252.00
2019-04-22T06:25:23.349Z,4304.00
2019-04-22T06:26:26.761Z,4340.00
2019-04-22T06:28:20.434Z,4400.00
2019-04-22T06:29:09.263Z,4428.00
2019-04-22T06:31:08.893Z,4488.00
2019-04-22T06:32:17.444Z,4516.00
2019-04-22T06:33:56.192Z,4576.00
2019-04-22T06:34:53.079Z,4600.00
2019-04-22T06:37:55.526Z,4716.00
2019-04-22T06:39:36.939Z,4916.00
2019-04-22T06:40:41.974Z,5112.00
2019-04-22T06:43:30.095Z,5840.00
2019-04-22T06:45:24.569Z,7268.00
2019-04-22T06:46:17.075Z,9140.00
2019-04-22T06:48:23.826Z,21056.00
2019-04-22T06:49:17.112Z,30592.00
2019-04-22T06:51:08.090Z,32672.00
2019-04-22T06:52:15.283Z,32800.00
2019-04-22T06:54:01.759Z,32960.00
2019-04-22T06:55:05.977Z,33024.00
2019-04-22T06:56:55.918Z,33408.00
2019-04-22T06:57:54.519Z,33632.00
2019-04-22T06:59:43.983Z,34080.00
2019-04-22T07:02:59.039Z,35552.00
2019-04-22T07:03:52.053Z,35872.00
2019-04-22T07:05:32.881Z,36448.00
2019-04-22T07:06:35.055Z,36640.00
2019-04-22T07:11:11.008Z,37184.00
2019-04-22T07:12:17.316Z,37088.00
2019-04-22T07:14:04.221Z,37888.00
2019-04-22T07:15:21.820Z,38080.00
2019-04-22T07:17:02.228Z,38208.00
2019-04-22T07:18:03.063Z,38624.00
2019-04-22T07:19:47.592Z,39392.00
2019-04-22T07:20:58.288Z,39552.00
2019-04-22T07:22:49.547Z,40160.00
2019-04-22T07:23:51.272Z,40384.00
2019-04-22T07:25:41.281Z,40736.00
2019-04-22T07:26:36.232Z,40832.00
2019-04-22T07:28:23.302Z,40736.00
2019-04-22T07:29:32.685Z,40896.00
2019-04-22T07:31:20.839Z,40928.00
2019-04-22T07:32:57.847Z,40864.00
2019-04-22T07:34:22.320Z,41024.00
2019-04-22T07:35:22.472Z,41216.00
2019-04-22T07:37:31.660Z,41280.00
2019-04-22T07:38:15.418Z,41472.00
2019-04-22T07:39:56.903Z,41536.00
2019-04-22T07:40:59.296Z,41536.00
2019-04-22T07:42:57.487Z,41696.00
2019-04-22T07:44:09.167Z,41664.00
2019-04-22T07:46:00.580Z,41920.00
2019-04-22T07:46:49.954Z,42272.00
2019-04-22T07:51:33.418Z,42272.00
2019-04-22T07:52:35.407Z,42400.00
2019-04-22T07:54:26.458Z,42560.00
2019-04-22T07:55:17.818Z,42304.00
2019-04-22T07:57:24.421Z,42528.00
2019-04-22T07:58:18.272Z,42656.00
2019-04-22T08:01:14.038Z,42528.00
2019-04-22T08:03:06.658Z,42240.00
2019-04-22T08:04:13.151Z,42304.00
2019-04-22T08:06:05.390Z,42112.00
2019-04-22T08:06:57.113Z,42208.00
2019-04-22T08:08:58.284Z,41696.00
2019-04-22T08:09:59.691Z,41728.00
2019-04-22T08:11:57.884Z,41376.00
2019-04-22T08:14:36.081Z,40000.00
2019-04-22T08:15:33.369Z,39648.00
2019-04-22T08:17:52.053Z,38496.00
2019-04-22T08:18:45.674Z,37152.00
2019-04-22T08:20:23.827Z,33888.00
2019-04-22T08:21:15.235Z,30656.00
2019-04-22T08:23:16.395Z,19328.00
2019-04-22T08:24:23.924Z,15648.00
2019-04-22T08:26:01.139Z,11644.00
2019-04-22T08:27:05.946Z,10344.00
2019-04-22T08:29:02.307Z,8564.00
2019-04-22T08:30:06.614Z,7884.00
2019-04-22T08:31:59.126Z,6768.00
2019-04-22T08:32:48.887Z,6340.00
2019-04-22T08:37:52.524Z,5876.00
2019-04-22T08:38:46.081Z,5832.00
2019-04-22T08:40:32.483Z,5808.00
2019-04-22T08:41:37.587Z,5800.00
2019-04-22T08:43:33.395Z,5772.00
2019-04-22T08:44:27.859Z,5756.00
2019-04-22T08:46:17.100Z,5748.00
2019-04-22T08:47:21.417Z,5732.00
2019-04-22T08:49:18.055Z,5688.00
2019-04-22T08:51:54.928Z,5636.00
2019-04-22T08:53:06.181Z,5624.00
2019-04-22T08:54:50.795Z,5588.00
2019-04-22T08:56:00.658Z,5580.00
2019-04-22T08:58:06.333Z,5544.00
2019-04-22T08:58:39.770Z,5528.00
2019-04-22T09:00:37.496Z,5508.00
2019-04-22T09:01:36.366Z,5488.00
2019-04-22T09:03:27.981Z,5448.00
2019-04-22T09:04:23.382Z,5424.00
2019-04-22T09:06:30.001Z,5368.00
2019-04-22T09:09:16.389Z,5332.00
2019-04-22T09:10:17.266Z,5320.00
2019-04-22T09:12:08.022Z,5304.00
2019-04-22T09:13:08.309Z,5292.00
2019-04-22T09:15:14.427Z,5256.00
2019-04-22T09:15:59.048Z,5236.00
2019-04-22T09:18:00.422Z,5224.00
2019-04-22T09:18:57.478Z,5216.00
2019-04-22T09:20:48.608Z,5224.00
2019-04-22T09:21:53.462Z,5216.00
2019-04-22T09:23:44.589Z,5192.00
2019-04-22T09:24:38.276Z,5176.00
2019-04-22T09:26:30.276Z,5148.00
2019-04-22T09:27:33.990Z,5140.00
2019-04-22T09:29:26.781Z,5108.00
2019-04-22T09:30:29.422Z,5088.00
2019-04-22T09:33:20.928Z,5060.00
2019-04-22T09:35:03.367Z,5056.00
2019-04-22T09:38:12.052Z,5024.00
2019-04-22T09:39:09.266Z,5020.00
2019-04-22T09:40:55.318Z,4976.00
2019-04-22T09:41:53.877Z,4960.00
2019-04-22T09:43:52.375Z,4944.00
2019-04-22T09:44:47.489Z,4952.00
2019-04-22T09:46:40.979Z,4952.00
2019-04-22T09:47:45.314Z,4948.00
2019-04-22T09:49:36.845Z,4936.00
2019-04-22T09:52:20.590Z,4928.00
2019-04-22T09:53:22.483Z,4924.00
2019-04-22T09:56:17.828Z,4912.00
2019-04-22T09:58:12.398Z,4896.00
2019-04-22T09:59:07.709Z,4888.00
2019-04-22T10:01:04.022Z,4872.00
2019-04-22T10:02:13.348Z,4856.00
2019-04-22T10:04:54.121Z,4828.00
2019-04-22T10:06:40.556Z,4800.00
2019-04-22T10:07:50.805Z,4792.00
2019-04-22T10:09:49.520Z,4760.00
2019-04-22T10:10:42.867Z,4756.00
2019-04-22T10:12:42.642Z,4744.00
2019-04-22T10:13:34.793Z,4536.00
2019-04-22T10:15:20.858Z,4640.00
2019-04-22T10:16:17.567Z,4696.00
2019-04-22T10:18:20.327Z,4720.00
2019-04-22T10:19:18.417Z,4692.00
2019-04-22T10:21:12.325Z,4660.00
2019-04-22T10:22:12.194Z,4692.00
2019-04-22T10:24:05.919Z,4812.00
2019-04-22T10:26:55.369Z,4908.00
2019-04-22T10:27:55.256Z,4936.00
2019-04-22T10:30:00.350Z,4952.00
2019-04-22T10:32:39.596Z,5028.00
2019-04-22T10:33:28.035Z,5088.00
2019-04-22T10:35:12.257Z,5200.00
2019-04-22T10:36:05.965Z,5268.00
2019-04-22T10:37:58.607Z,5396.00
2019-04-22T10:38:58.415Z,5444.00
2019-04-22T10:40:52.549Z,5540.00
2019-04-22T10:41:50.992Z,5580.00
2019-04-22T10:43:43.686Z,5660.00
2019-04-22T10:44:45.169Z,5688.00
2019-04-22T10:46:36.345Z,5736.00
2019-04-22T10:47:36.247Z,5804.00
2019-04-22T10:49:28.942Z,5868.00
2019-04-22T10:50:31.448Z,5860.00
2019-04-22T10:52:21.673Z,5804.00
2019-04-22T10:53:21.757Z,5772.00
2019-04-22T10:55:14.176Z,5744.00
2019-04-22T10:56:14.882Z,5752.00
2019-04-22T10:58:06.793Z,5776.00
2019-04-22T10:59:06.863Z,5780.00
2019-04-22T11:01:00.194Z,5760.00
2019-04-22T11:01:59.312Z,5724.00
2019-04-22T11:03:53.120Z,5688.00
2019-04-22T11:04:52.734Z,5660.00
2019-04-22T11:06:53.111Z,5504.00
2019-04-22T11:07:51.956Z,5464.00
2019-04-22T11:09:49.318Z,5472.00
2019-04-22T11:10:56.357Z,5464.00
2019-04-22T11:12:34.125Z,5396.00
2019-04-22T11:13:31.759Z,5356.00
2019-04-22T11:15:24.502Z,5296.00
2019-04-22T11:16:23.688Z,5260.00
2019-04-22T11:18:17.704Z,5180.00
2019-04-22T11:19:17.325Z,5124.00
2019-04-22T11:21:09.670Z,5064.00
2019-04-22T11:22:16.850Z,5032.00
2019-04-22T11:24:02.839Z,4956.00
2019-04-22T11:25:01.470Z,4912.00
2019-04-22T11:26:54.959Z,4832.00
2019-04-22T11:27:55.658Z,4780.00
2019-04-22T11:29:47.663Z,4704.00
2019-04-22T11:30:48.126Z,4672.00
2019-04-22T11:32:40.408Z,4612.00
2019-04-22T11:33:40.588Z,4604.00
2019-04-22T11:35:34.030Z,4592.00
2019-04-22T11:36:32.811Z,4588.00
2019-04-22T11:38:26.789Z,4552.00
2019-04-22T11:39:28.973Z,4528.00
2019-04-22T11:41:19.484Z,4496.00
2019-04-22T11:42:18.542Z,4476.00
2019-04-22T11:44:11.533Z,4448.00
2019-04-22T11:45:11.144Z,4428.00
2019-04-22T11:47:05.270Z,4376.00
2019-04-22T11:48:03.738Z,4352.00
2019-04-22T11:49:57.601Z,4324.00
2019-04-22T11:50:57.764Z,4308.00
2019-04-22T11:52:50.919Z,4292.00
2019-04-22T11:53:49.470Z,4288.00
2019-04-22T11:55:42.596Z,4244.00
2019-04-22T11:56:43.061Z,4212.00
2019-04-22T11:58:35.397Z,4152.00
2019-04-22T11:59:34.621Z,4144.00
2019-04-22T12:01:28.732Z,4108.00
2019-04-22T12:02:27.282Z,4096.00
2019-04-22T12:04:20.446Z,4072.00
2019-04-22T12:05:21.540Z,4068.00
2019-04-22T12:07:12.987Z,4036.00
2019-04-22T12:08:13.243Z,4020.00
2019-04-22T12:10:22.349Z,3996.00
2019-04-22T12:11:06.011Z,3980.00
2019-04-22T12:12:58.189Z,3968.00
2019-04-22T12:13:58.094Z,3972.00
2019-04-22T12:15:51.162Z,3952.00
2019-04-22T12:16:50.653Z,3940.00
2019-04-22T12:18:43.360Z,3928.00
2019-04-22T12:19:44.242Z,3916.00
2019-04-22T12:21:37.101Z,3908.00
2019-04-22T12:22:35.853Z,3888.00
2019-04-22T12:24:30.140Z,3848.00
2019-04-22T12:25:41.947Z,3836.00
2019-04-22T12:27:22.834Z,3844.00
2019-04-22T12:28:21.285Z,3836.00
2019-04-22T12:30:14.812Z,3836.00
2019-04-22T12:31:13.680Z,3832.00
2019-04-22T12:33:09.293Z,3828.00
2019-04-22T12:34:07.801Z,3824.00
2019-04-22T12:36:00.147Z,3764.00
2019-04-22T12:36:58.811Z,3764.00
2019-04-22T12:38:51.515Z,3748.00
2019-04-22T12:39:55.966Z,3740.00
2019-04-22T12:41:44.430Z,3736.00
2019-04-22T12:42:45.028Z,3748.00
2019-04-22T12:44:39.094Z,3752.00
2019-04-22T12:45:36.628Z,3740.00
2019-04-22T12:47:30.550Z,3716.00
2019-04-22T12:48:29.167Z,3716.00
2019-04-22T12:50:27.394Z,3716.00
2019-04-22T12:51:23.053Z,3716.00
2019-04-22T12:53:18.134Z,3700.00
2019-04-22T12:54:15.198Z,3684.00
2019-04-22T12:56:07.145Z,3664.00
2019-04-22T12:57:06.953Z,3676.00
2019-04-22T12:58:59.660Z,3688.00
2019-04-22T12:59:59.627Z,3688.00
2019-04-22T13:01:52.967Z,3688.00
2019-04-22T13:02:52.174Z,3680.00
2019-04-22T13:04:45.992Z,3684.00
2019-04-22T13:05:45.168Z,3688.00
2019-04-22T13:07:37.984Z,3672.00
2019-04-22T13:08:38.095Z,3684.00
2019-04-22T13:10:41.591Z,3672.00
2019-04-22T13:11:32.845Z,3660.00
2019-04-22T13:13:23.054Z,3624.00
2019-04-22T13:14:23.203Z,3592.00
2019-04-22T13:16:15.464Z,3588.00
2019-04-22T13:17:15.730Z,3592.00
2019-04-22T13:19:11.678Z,3576.00
2019-04-22T13:20:08.286Z,3536.00
2019-04-22T13:22:00.923Z,3532.00
2019-04-22T13:23:00.278Z,3520.00
2019-04-22T13:24:54.089Z,3484.00
2019-04-22T13:25:52.866Z,3484.00
2019-04-22T13:27:46.842Z,3468.00
2019-04-22T13:28:47.271Z,3464.00
2019-04-22T13:30:40.799Z,3464.00
2019-04-22T13:31:40.364Z,3468.00
2019-04-22T13:33:32.890Z,3480.00
2019-04-22T13:34:39.702Z,3492.00
2019-04-22T13:36:26.370Z,3492.00
2019-04-22T13:37:25.277Z,3496.00
2019-04-22T13:39:16.932Z,3488.00
2019-04-22T13:40:16.998Z,3480.00
2019-04-22T13:42:12.554Z,3500.00
2019-04-22T13:43:09.372Z,3508.00
2019-04-22T13:45:02.082Z,3524.00
2019-04-22T13:46:01.958Z,3520.00
2019-04-22T13:48:10.989Z,3496.00
2019-04-22T13:49:24.024Z,3500.00
2019-04-22T13:51:15.178Z,3492.00
2019-04-22T13:52:29.999Z,3484.00
2019-04-22T13:54:36.579Z,3480.00
2019-04-22T13:55:08.484Z,3472.00
2019-04-22T13:56:55.438Z,3472.00
2019-04-22T13:57:47.547Z,3464.00
2019-04-22T13:59:33.268Z,3456.00
2019-04-22T14:00:25.011Z,3452.00
2019-04-22T14:02:18.855Z,3460.00
2019-04-22T14:03:18.352Z,3460.00
2019-04-22T14:05:10.584Z,3472.00
2019-04-22T14:06:10.903Z,3468.00
2019-04-22T14:08:04.876Z,3468.00
2019-04-22T14:09:03.188Z,3464.00
2019-04-22T14:11:00.370Z,3452.00
2019-04-22T14:12:01.494Z,3456.00
2019-04-22T14:13:48.053Z,3464.00
2019-04-22T14:14:50.448Z,3460.00
2019-04-22T14:16:40.868Z,3460.00
2019-04-22T14:17:41.001Z,3452.00
2019-04-22T14:19:34.044Z,3452.00
2019-04-22T14:20:34.368Z,3444.00
2019-04-22T14:22:26.394Z,3440.00
2019-04-22T14:23:26.807Z,3440.00
2019-04-22T14:25:18.862Z,3432.00
2019-04-22T14:26:19.512Z,3420.00
2019-04-22T14:28:15.889Z,3412.00
2019-04-22T14:29:11.430Z,3420.00
2019-04-22T14:31:04.395Z,3408.00
2019-04-22T14:32:12.777Z,3412.00
2019-04-22T14:34:00.980Z,3408.00
2019-04-22T14:34:57.308Z,3404.00
2019-04-22T14:36:48.697Z,3392.00
2019-04-22T14:37:50.175Z,3384.00
2019-04-22T14:39:41.958Z,3376.00
2019-04-22T14:40:43.026Z,3368.00
2019-04-22T14:42:52.063Z,3352.00
2019-04-22T14:44:00.746Z,3356.00
2019-04-22T14:46:03.940Z,3352.00
2019-04-22T14:46:58.719Z,3348.00
2019-04-22T14:48:45.756Z,3340.00
2019-04-22T14:49:43.375Z,3336.00
2019-04-22T14:51:30.444Z,3316.00
2019-04-22T14:52:33.227Z,3320.00
2019-04-22T14:54:18.225Z,3312.00
2019-04-22T14:55:12.753Z,3312.00
2019-04-22T14:56:58.887Z,3300.00
2019-04-22T14:57:57.259Z,3300.00
2019-04-22T14:59:50.203Z,3300.00
2019-04-22T15:00:51.924Z,3300.00
2019-04-22T15:02:43.876Z,3292.00
2019-04-22T15:03:44.857Z,3296.00
2019-04-22T15:05:36.477Z,3284.00
2019-04-22T15:06:36.154Z,3276.00
2019-04-22T15:08:28.971Z,3264.00
2019-04-22T15:09:28.116Z,3256.00
2019-04-22T15:11:21.298Z,3252.00
2019-04-22T15:12:30.232Z,3256.00
2019-04-22T15:14:12.990Z,3244.00
2019-04-22T15:15:13.511Z,3244.00
2019-04-22T15:17:06.776Z,3232.00
2019-04-22T15:18:06.040Z,3228.00
2019-04-22T15:19:58.681Z,3224.00
2019-04-22T15:20:58.670Z,3220.00
2019-04-22T15:22:52.393Z,3220.00
2019-04-22T15:23:51.171Z,3212.00
2019-04-22T15:25:44.241Z,3216.00
2019-04-22T15:26:44.547Z,3216.00
2019-04-22T15:28:37.469Z,3220.00
2019-04-22T15:29:36.379Z,3224.00
2019-04-22T15:31:29.294Z,3204.00
2019-04-22T15:32:29.548Z,3168.00
2019-04-22T15:34:22.606Z,3152.00
2019-04-22T15:35:23.023Z,3148.00
2019-04-22T15:37:15.973Z,3116.00
2019-04-22T15:38:15.562Z,3116.00
2019-04-22T15:40:08.897Z,3148.00
2019-04-22T15:41:07.808Z,3112.00
2019-04-22T15:43:00.466Z,3144.00
2019-04-22T15:44:01.754Z,3144.00
2019-04-22T15:45:54.874Z,3136.00
2019-04-22T15:46:53.469Z,3116.00
2019-04-22T15:48:46.336Z,3112.00
2019-04-22T15:49:46.032Z,3064.00
2019-04-22T15:51:40.776Z,3052.00
2019-04-22T15:52:47.326Z,3072.00
2019-04-22T15:54:31.995Z,3068.00
2019-04-22T15:55:32.558Z,3060.00
2019-04-22T15:57:24.726Z,3044.00
2019-04-22T15:58:25.738Z,3036.00
2019-04-22T16:00:29.447Z,3016.00
2019-04-22T16:01:23.038Z,3048.00
2019-04-22T16:03:12.376Z,2976.00
2019-04-22T16:04:10.452Z,3020.00
2019-04-22T16:06:03.920Z,3004.00
2019-04-22T16:07:03.290Z,2988.00
2019-04-22T16:08:55.987Z,2976.00
2019-04-22T16:09:55.196Z,2956.00
2019-04-22T16:11:47.904Z,2888.00
2019-04-22T16:12:57.421Z,2860.00
2019-04-22T16:14:46.928Z,2812.00
2019-04-22T16:15:40.457Z,2820.00
2019-04-22T16:17:34.789Z,2804.00
2019-04-22T16:18:33.476Z,2844.00
2019-04-22T16:20:28.056Z,2792.00
2019-04-22T16:21:32.752Z,2808.00
2019-04-22T16:23:22.299Z,2760.00
2019-04-22T16:24:20.189Z,2788.00
2019-04-22T16:26:13.546Z,2752.00
2019-04-22T16:27:12.083Z,2732.00
2019-04-22T16:29:05.307Z,2776.00
2019-04-22T16:30:05.472Z,2784.00
2019-04-22T16:31:57.624Z,2744.00
2019-04-22T16:32:57.216Z,2776.00
2019-04-22T16:34:49.906Z,2756.00
2019-04-22T16:35:50.785Z,2784.00
2019-04-22T16:37:43.025Z,2768.00
2019-04-22T16:38:42.837Z,2748.00
2019-04-22T16:40:36.670Z,2720.00
2019-04-22T16:41:35.286Z,2712.00
2019-04-22T16:43:28.794Z,2684.00
2019-04-22T16:44:27.822Z,2656.00
2019-04-22T16:46:21.379Z,2564.00
2019-04-22T16:47:21.690Z,2540.00
2019-04-22T16:49:14.036Z,2480.00
2019-04-22T16:50:14.057Z,2432.00
2019-04-22T16:52:06.205Z,2388.00
2019-04-22T16:53:06.160Z,2352.00
2019-04-22T16:54:59.122Z,2284.00
2019-04-22T16:55:59.083Z,2196.00
2019-04-22T16:57:52.564Z,2056.00
2019-04-22T16:58:52.690Z,2004.00
2019-04-22T17:00:44.899Z,1948.00
2019-04-22T17:01:44.358Z,1920.00
2019-04-22T17:03:38.774Z,1848.00
2019-04-22T17:04:38.681Z,1816.00
2019-04-22T17:06:31.862Z,1800.00
2019-04-22T17:07:31.924Z,1816.00
2019-04-22T17:09:25.669Z,1860.00
2019-04-22T17:10:24.174Z,1876.00
2019-04-22T17:12:16.869Z,1900.00
2019-04-22T17:13:20.927Z,1952.00
2019-04-22T17:15:12.193Z,2348.00
2019-04-22T17:16:09.837Z,2564.00
2019-04-22T17:18:03.232Z,2972.00
2019-04-22T17:19:02.554Z,3160.00
2019-04-22T17:20:55.334Z,2992.00
2019-04-22T17:21:55.291Z,2408.00
2019-04-22T17:23:47.569Z,2032.00
2019-04-22T17:24:47.922Z,2008.00
2019-04-22T17:26:42.193Z,1952.00
2019-04-22T17:27:41.456Z,1932.00
2019-04-22T17:29:34.769Z,1904.00
2019-04-22T17:30:33.311Z,1888.00
2019-04-22T17:32:27.302Z,1848.00
2019-04-22T17:33:26.460Z,1824.00
2019-04-22T17:35:20.021Z,1780.00
2019-04-22T17:36:18.496Z,1756.00
2019-04-22T17:38:21.018Z,1712.00
2019-04-22T17:39:25.896Z,1700.00
2019-04-22T17:41:17.455Z,1664.00
2019-04-22T17:42:25.386Z,1644.00
2019-04-22T17:44:18.921Z,1608.00
2019-04-22T17:45:22.195Z,1596.00
2019-04-22T17:47:03.990Z,1556.00
2019-04-22T17:48:12.673Z,1540.00
2019-04-22T17:50:10.052Z,1520.00
2019-04-22T17:51:10.579Z,1504.00
2019-04-22T17:53:04.769Z,1472.00
2019-04-22T17:53:57.759Z,1448.00
2019-04-22T17:55:44.011Z,1400.00
2019-04-22T17:56:49.676Z,1376.00
2019-04-22T17:58:43.639Z,1320.00
2019-04-22T17:59:38.081Z,1292.00
2019-04-22T18:01:35.550Z,1236.00
2019-04-22T18:02:27.938Z,1204.00
2019-04-22T18:04:07.156Z,1148.00
2019-04-22T18:05:09.265Z,1116.00
2019-04-22T18:07:25.738Z,1044.00
2019-04-22T18:08:17.717Z,1008.00
2019-04-22T18:10:27.142Z,932.00
2019-04-22T18:11:13.473Z,896.00
2019-04-22T18:13:14.377Z,828.00
2019-04-22T18:14:28.048Z,792.00
2019-04-22T18:16:02.372Z,720.00
2019-04-22T18:17:05.848Z,684.00
2019-04-22T18:18:53.003Z,612.00
2019-04-22T18:19:48.551Z,576.00
2019-04-22T18:21:31.947Z,512.00
2019-04-22T18:22:37.242Z,476.00
2019-04-22T18:24:23.914Z,420.00
2019-04-22T18:25:35.140Z,392.00
2019-04-22T18:27:40.334Z,344.00
2019-04-22T18:28:30.447Z,320.00
2019-04-22T18:30:18.139Z,284.00
2019-04-22T18:31:15.898Z,260.00
2019-04-22T18:33:12.986Z,220.00
2019-04-22T18:34:06.879Z,200.00
2019-04-22T18:36:05.369Z,164.00
2019-04-22T18:37:05.841Z,148.00
2019-04-22T18:39:04.737Z,124.00
2019-04-22T18:40:06.554Z,112.00
2019-04-22T18:41:54.058Z,92.00
2019-04-22T18:42:58.444Z,84.00
2019-04-22T18:44:50.769Z,68.00
2019-04-22T18:46:07.065Z,60.00
2019-04-22T18:47:43.191Z,48.00
2019-04-22T18:48:38.909Z,44.00
2019-04-22T18:50:43.136Z,36.00
2019-04-22T18:51:34.185Z,32.00
2019-04-22T18:53:30.041Z,24.00
2019-04-22T18:54:26.871Z,20.00
2019-04-22T18:56:19.175Z,16.00
2019-04-22T18:57:15.193Z,12.00
2019-04-22T18:58:59.546Z,8.00
2019-04-22T18:59:55.486Z,8.00
2019-04-22T19:01:43.872Z,4.00
2019-04-22T19:02:50.989Z,4.00
2019-04-22T19:04:49.334Z,4.00
2019-04-22T19:06:02.678Z,4.00
2019-04-22T19:08:00.634Z,0.00
2019-04-22T19:08:50.736Z,4.00
2019-04-22T19:10:53.183Z,4.00
2019-04-22T19:11:52.103Z,0.00
2019-04-22T19:14:40.775Z,0.00
2019-04-22T19:17:39.218Z,0.00
2019-04-22T19:19:43.581Z,0.00
2019-04-22T19:20:23.606Z,0.00
2019-04-22T19:22:16.229Z,0.00
2019-04-22T19:23:17.957Z,0.00
2019-04-22T19:25:01.269Z,0.00
2019-04-22T19:26:08.287Z,0.00
2019-04-22T19:28:01.271Z,0.00
2019-04-22T19:29:00.327Z,0.00
2019-04-22T19:30:58.765Z,0.00
2019-04-22T19:31:52.359Z,0.00
2019-04-22T19:33:50.089Z,0.00
2019-04-22T19:34:42.849Z,0.00
2019-04-22T19:36:40.882Z,0.00
2019-04-22T19:37:33.165Z,0.00
2019-04-22T19:39:27.255Z,0.00
2019-04-22T19:40:40.420Z,0.00
2019-04-22T19:42:32.174Z,0.00
2019-04-22T19:43:27.462Z,0.00
2019-04-22T19:45:14.670Z,0.00
2019-04-22T19:46:17.008Z,0.00
2019-04-22T19:48:13.452Z,0.00
2019-04-22T19:49:14.746Z,0.00
2019-04-22T19:51:12.815Z,0.00
2019-04-22T19:52:05.962Z,0.00
2019-04-22T19:53:51.261Z,0.00
2019-04-22T19:54:59.770Z,0.00
2019-04-22T19:56:38.288Z,0.00
2019-04-22T19:57:43.397Z,0.00
2019-04-22T19:59:36.350Z,0.00
2019-04-22T20:00:33.984Z,0.00
2019-04-22T20:02:31.514Z,0.00
2019-04-22T20:03:36.200Z,0.00
2019-04-22T20:05:26.205Z,0.00
2019-04-22T20:06:20.557Z,0.00
2019-04-22T20:08:15.748Z,0.00
2019-04-22T20:09:21.079Z,0.00
2019-04-22T20:11:14.875Z,0.00
2019-04-22T20:12:04.410Z,0.00
2019-04-22T20:14:02.702Z,0.00
2019-04-22T20:14:57.632Z,0.00
2019-04-22T20:16:51.502Z,0.00
2019-04-22T20:18:19.204Z,0.00
2019-04-22T20:19:52.626Z,0.00
2019-04-22T20:20:46.637Z,0.00
2019-04-22T20:22:37.500Z,0.00
2019-04-22T20:23:29.093Z,0.00
2019-04-22T20:25:21.363Z,0.00
2019-04-22T20:26:23.482Z,0.00
2019-04-22T20:28:25.572Z,0.00
2019-04-22T20:31:18.586Z,0.00
2019-04-22T20:32:18.812Z,0.00
2019-04-22T20:34:14.638Z,0.00
2019-04-22T20:35:08.063Z,0.00
2019-04-22T20:38:02.844Z,0.00
2019-04-22T20:39:52.942Z,0.00
2019-04-22T20:40:55.320Z,0.00
2019-04-22T20:43:54.691Z,0.00
2019-04-22T20:45:39.569Z,0.00
2019-04-22T20:46:36.209Z,0.00
2019-04-22T20:48:37.574Z,0.00
2019-04-22T20:49:38.331Z,0.00
2019-04-22T20:51:28.032Z,0.00
2019-04-22T20:52:34.178Z,0.00
2019-04-22T20:54:20.678Z,0.00
2019-04-22T20:55:13.108Z,0.00
2019-04-22T20:57:07.188Z,0.00
2019-04-22T20:58:13.379Z,0.00
2019-04-22T20:59:57.311Z,0.00
2019-04-22T21:00:55.657Z,0.00
2019-04-22T21:02:46.177Z,0.00
2019-04-22T21:03:43.953Z,0.00
2019-04-22T21:05:38.327Z,0.00
2019-04-22T21:06:44.262Z,0.00
2019-04-22T21:08:42.197Z,0.00
2019-04-22T21:09:41.186Z,0.00
2019-04-22T21:11:30.390Z,0.00
2019-04-22T21:12:24.997Z,0.00
2019-04-22T21:14:21.582Z,0.00
2019-04-22T21:15:32.700Z,0.00
2019-04-22T21:17:17.229Z,0.00
2019-04-22T21:18:13.642Z,0.00
2019-04-22T21:20:20.125Z,0.00
2019-04-22T21:21:13.577Z,0.00
2019-04-22T21:23:02.741Z,0.00
2019-04-22T21:23:58.371Z,0.00
2019-04-22T21:25:57.190Z,0.00
2019-04-22T21:27:04.395Z,0.00
2019-04-22T21:28:47.736Z,0.00
2019-04-22T21:29:45.079Z,0.00
2019-04-22T21:31:41.342Z,0.00
2019-04-22T21:32:38.921Z,0.00
2019-04-22T21:34:32.275Z,0.00
2019-04-22T21:35:50.313Z,0.00
2019-04-22T21:37:32.542Z,0.00
2019-04-22T21:38:26.470Z,0.00
2019-04-22T21:40:20.070Z,0.00
2019-04-22T21:41:18.988Z,0.00
2019-04-22T21:43:12.157Z,0.00
2019-04-22T21:44:10.272Z,0.00
2019-04-22T21:46:10.222Z,0.00
2019-04-22T21:47:09.952Z,0.00
2019-04-22T21:48:59.782Z,0.00
2019-04-22T21:50:18.015Z,0.00
2019-04-22T21:51:54.031Z,0.00
2019-04-22T21:52:56.422Z,0.00
2019-04-22T21:54:48.981Z,0.00
2019-04-22T21:55:43.466Z,0.00
2019-04-22T21:57:32.106Z,0.00
2019-04-22T21:58:38.580Z,0.00
